Latest Weather Observations for Cessnock Airport

IDN60801

Issued at 7:22 pm EST Monday 1 June 2020 (issued every 10 minutes, with the page automatically refreshed every 10 minutes)

About weather observations | Map of weather stations | Latest weather observations for NSW | Other Formats
Station Details ID: 061260 Name: CESSNOCK AIRPORT AWS Lat: -32.79 Lon: 151.34 Height: 61.0 m
Data from the previous 72 hours. | See also: Recent months at Cessnock Airport
Date/Time
EST
Temp
°C
App
Temp
°C
Dew
Point
°C
Rel
Hum
%
Delta-T
°C
Wind Press
QNH
hPa
Press
MSL
hPa
Rain since
9am
mm
Dir  Spd
km/h
Gust
km/h
Spd
kts
Gust
kts
01/07:11pm 16.3 9.8 4.7 46 5.5 W 28 46 15 25 1010.6 1010.6 0.0
01/07:00pm 17.0 11.9 4.0 42 6.1 W 20 39 11 21 1010.1 1010.1 0.0
01/06:30pm 18.2 12.9 2.9 36 7.1 WNW 20 41 11 22 1008.9 1008.9 0.0
01/06:00pm 18.6 13.9 2.9 35 7.3 WNW 17 32 9 17 1008.1 1008.1 0.0
01/05:30pm 18.6 14.7 3.6 37 7.1 WNW 13 30 7 16 1007.5 1007.5 0.0
01/05:00pm 19.4 15.3 4.4 37 7.2 WNW 15 26 8 14 1007.0 1007.0 0.0
01/04:30pm 20.0 15.9 6.4 41 6.8 NW 17 32 9 17 1006.4 1006.4 0.0
01/04:00pm 20.6 16.5 7.9 44 6.6 NNW 19 30 10 16 1006.2 1006.2 0.0
01/03:30pm 20.7 17.0 8.0 44 6.6 NW 17 32 9 17 1006.1 1006.1 0.0
01/03:00pm 21.4 16.5 8.3 43 6.9 NW 24 46 13 25 1006.0 1006.0 0.0
01/02:30pm 21.2 16.2 8.1 43 6.9 NNW 24 35 13 19 1006.2 1006.2 0.0
01/02:00pm 21.5 16.6 8.4 43 6.9 NNW 24 43 13 23 1006.4 1006.4 0.0
01/01:35pm 21.3 15.4 7.5 41 7.1 NNW 28 50 15 27 1006.5 1006.5 0.0
01/01:30pm 21.4 16.7 7.6 41 7.2 NNW 22 50 12 27 1006.6 1006.6 0.0
01/01:15pm 21.4 15.6 8.0 42 7.0 NNW 28 56 15 30 1006.8 1006.8 0.0
01/01:00pm 21.5 16.3 8.7 44 6.8 NNW 26 43 14 23 1007.1 1007.1 0.0
01/12:30pm 20.9 15.9 9.5 48 6.1 NNW 26 39 14 21 1007.6 1007.6 0.0
01/12:00pm 20.9 16.4 10.1 50 5.9 NNW 24 43 13 23 1008.1 1008.1 0.0
01/11:30am 20.4 15.8 9.6 50 5.8 NNW 24 41 13 22 1008.9 1008.9 0.0
01/11:00am 20.4 15.8 9.6 50 5.8 NNW 24 41 13 22 1009.6 1009.6 0.0
01/10:30am 19.7 15.2 10.1 54 5.2 NNW 24 44 13 24 1010.1 1010.1 0.0
01/10:24am 19.9 14.6 10.0 53 5.3 NNW 28 46 15 25 1010.2 1010.2 0.0
01/10:00am 19.0 16.2 11.3 61 4.2 N 17 30 9 16 1010.5 1010.5 0.0
01/09:30am 16.2 14.3 11.8 75 2.4 NNE 13 17 7 9 1010.8 1010.7 0.0
01/09:00am 14.1 12.8 12.5 90 0.9 NNE 11 15 6 8 1011.1 1011.0 0.0
01/08:30am 11.9 10.6 11.4 97 0.3 NNE 9 11 5 6 1011.4 1011.3 0.0
01/08:00am 10.1 8.9 9.6 97 0.3 NNE 6 7 3 4 1011.4 1011.3 0.0
01/07:30am 9.0 8.7 8.6 97 0.2 CALM 0 0 0 0 1011.7 1011.6 0.0
01/07:00am 9.8 8.3 9.3 97 0.2 N 7 9 4 5 1011.5 1011.4 0.0
01/06:30am 9.6 8.1 9.3 98 0.1 N 7 9 4 5 1011.4 1011.3 0.0
01/06:00am 9.4 7.9 9.1 98 0.1 NNE 7 9 4 5 1011.5 1011.4 0.0
01/05:30am 8.7 7.2 8.3 97 0.2 N 6 9 3 5 1011.6 1011.5 0.0
01/05:00am 8.7 7.0 8.4 98 0.1 N 7 9 4 5 1011.7 1011.6 0.0
01/04:30am 8.7 6.6 8.4 98 0.1 NNE 9 11 5 6 1011.8 1011.8 0.0
01/04:00am 8.1 5.9 7.8 98 0.1 NNE 9 9 5 5 1012.0 1012.0 0.0
01/03:30am 7.1 6.3 6.7 97 0.2 CALM 0 0 0 0 1012.3 1012.3 0.0
01/03:00am 7.0 6.2 6.6 97 0.2 CALM 0 0 0 0 1012.4 1012.4 0.0
01/02:30am 6.8 5.6 6.4 97 0.2 WSW 2 6 1 3 1012.4 1012.4 0.0
01/02:00am 7.0 6.2 6.6 97 0.2 CALM 0 0 0 0 1012.9 1012.9 0.0
01/01:30am 6.8 6.0 6.4 97 0.2 CALM 0 0 0 0 1013.1 1013.1 0.0
01/01:00am 7.4 6.7 7.0 97 0.2 CALM 0 0 0 0 1013.5 1013.5 0.0
01/12:30am 7.3 6.5 6.7 96 0.3 CALM 0 0 0 0 1013.7 1013.7 0.0
01/12:00am 8.1 7.6 7.7 97 0.2 CALM 0 0 0 0 1013.9 1013.9 0.0
 
Date/Time
EST
Temp
°C
App
Temp
°C
Dew
Point
°C
Rel
Hum
%
Delta-T
°C
Wind Press
QNH
hPa
Press
MSL
hPa
Rain since
9am
mm
Dir  Spd
km/h
Gust
km/h
Spd
kts
Gust
kts
31/11:30pm 8.2 7.6 7.6 96 0.3 CALM 0 0 0 0 1014.3 1014.3 0.0
31/11:00pm 8.3 6.6 7.7 96 0.3 WSW 6 7 3 4 1014.6 1014.6 0.0
31/10:30pm 8.9 7.4 8.3 96 0.3 SW 6 7 3 4 1014.8 1014.8 0.0
31/10:00pm 8.5 6.6 7.7 95 0.4 WSW 7 9 4 5 1015.1 1015.1 0.0
31/09:30pm 9.4 7.8 8.6 95 0.4 WSW 7 9 4 5 1015.3 1015.3 0.0
31/09:00pm 9.8 9.2 9.0 95 0.4 SW 2 7 1 4 1015.5 1015.5 0.0
31/08:30pm 9.8 8.2 8.7 93 0.5 WSW 7 9 4 5 1015.8 1015.8 0.0
31/08:00pm 10.5 9.3 9.4 93 0.6 SW 6 7 3 4 1016.0 1016.0 0.0
31/07:30pm 11.8 10.3 10.7 93 0.6 WSW 9 11 5 6 1016.1 1016.1 0.0
31/07:00pm 12.0 11.0 10.4 90 0.8 WSW 6 9 3 5 1016.2 1016.2 0.0
31/06:30pm 12.9 12.0 11.5 91 0.7 W 7 9 4 5 1016.1 1016.1 0.0
31/06:00pm 14.4 14.0 13.0 91 0.8 SSW 7 11 4 6 1015.9 1015.9 0.0
31/05:30pm 14.4 14.1 12.6 89 1.0 W 6 11 3 6 1015.8 1015.8 0.0
31/05:00pm 15.9 15.9 13.6 86 1.3 W 6 7 3 4 1015.8 1015.8 0.0
31/04:30pm 16.9 18.2 14.2 84 1.5 CALM 0 0 0 0 1015.7 1015.7 0.0
31/04:00pm 16.8 17.9 13.5 81 1.9 CALM 0 0 0 0 1015.8 1015.8 0.0
31/03:30pm 17.6 17.6 13.5 77 2.3 E 6 7 3 4 1015.9 1015.9 0.0
31/03:00pm 17.9 17.6 13.2 74 2.6 NNE 7 9 4 5 1015.9 1015.9 0.0
31/02:30pm 18.3 17.2 12.1 67 3.4 N 9 11 5 6 1016.1 1016.1 0.0
31/02:00pm 18.1 17.5 12.3 69 3.2 NNE 7 9 4 5 1016.1 1016.1 0.0
31/01:30pm 18.9 18.2 13.3 70 3.2 NNE 9 15 5 8 1016.2 1016.2 0.0
31/01:00pm 17.5 18.0 12.8 74 2.6 NE 2 7 1 4 1017.0 1017.0 0.0
31/12:30pm 16.3 17.3 13.2 82 1.7 CALM 0 0 0 0 1017.6 1017.6 0.0
31/12:00pm 14.9 14.6 12.8 87 1.2 ENE 6 6 3 3 1018.1 1018.1 0.0
31/11:30am 14.8 14.5 12.8 88 1.1 NNE 6 7 3 4 1018.6 1018.6 0.0
31/11:00am 13.3 12.3 12.2 93 0.6 NW 9 15 5 8 1018.9 1018.9 0.0
31/10:30am 13.1 12.3 12.9 99 0.1 N 9 13 5 7 1019.0 1019.0 0.0
31/10:00am 12.7 11.8 12.5 99 0.1 N 9 11 5 6 1019.8 1019.8 0.0
31/09:30am 12.2 11.7 12.0 99 0.1 NNW 6 9 3 5 1020.1 1020.1 0.0
31/09:00am 11.5 10.8 11.3 99 0.1 NW 6 9 3 5 1020.2 1020.2 0.2
31/08:30am 11.2 11.2 11.0 99 0.1 NNW 2 6 1 3 1020.3 1020.3 0.2
31/08:00am 10.9 9.4 10.7 99 0.1 N 9 11 5 6 1020.4 1020.4 0.2
31/07:30am 10.4 10.1 10.2 99 0.1 N 2 6 1 3 1020.5 1020.5 0.2
31/07:00am 10.1 10.2 10.0 99 0.1 CALM 0 0 0 0 1020.4 1020.4 0.2
31/06:30am 9.9 9.9 9.8 99 0.1 CALM 0 0 0 0 1020.4 1020.4 0.2
31/06:00am 10.0 8.9 9.9 99 0.1 NW 6 9 3 5 1020.5 1020.5 0.2
31/05:30am 10.1 9.4 10.0 99 0.1 NW 4 11 2 6 1020.1 1020.1 0.2
31/05:00am 9.6 8.3 9.3 98 0.1 WNW 6 11 3 6 1020.0 1020.0 0.2
31/04:30am 8.8 7.3 8.5 98 0.1 NNE 6 6 3 3 1019.8 1019.8 0.2
31/04:00am 8.6 6.9 8.3 98 0.1 NNE 7 9 4 5 1019.9 1019.9 0.2
31/03:30am 8.3 6.7 8.0 98 0.1 NNW 6 7 3 4 1020.0 1020.0 0.0
31/03:00am 8.1 7.6 7.8 98 0.1 CALM 0 0 0 0 1019.9 1019.9 0.0
31/02:30am 8.2 7.7 7.8 97 0.2 CALM 0 0 0 0 1020.1 1020.1 0.0
31/02:00am 7.9 6.0 7.5 97 0.2 SW 7 11 4 6 1020.2 1020.2 0.0
31/01:30am 8.6 8.2 8.2 97 0.2 CALM 0 0 0 0 1019.9 1019.9 0.0
31/01:00am 8.2 6.4 7.8 97 0.2 SW 7 11 4 6 1020.1 1020.1 0.0
31/12:30am 8.6 7.0 8.2 97 0.2 SW 6 9 3 5 1020.4 1020.4 0.0
31/12:00am 8.3 7.8 7.7 96 0.3 CALM 0 0 0 0 1020.9 1020.9 0.0
 
Date/Time
EST
Temp
°C
App
Temp
°C
Dew
Point
°C
Rel
Hum
%
Delta-T
°C
Wind Press
QNH
hPa
Press
MSL
hPa
Rain since
9am
mm
Dir  Spd
km/h
Gust
km/h
Spd
kts
Gust
kts
30/11:30pm 9.4 9.2 8.9 97 0.2 CALM 0 4 0 2 1021.4 1021.4 0.0
30/11:00pm 9.3 7.7 8.7 96 0.3 WSW 7 9 4 5 1021.7 1021.7 0.0
30/10:30pm 9.4 9.1 8.6 95 0.4 CALM 0 6 0 3 1021.9 1021.9 0.0
30/10:00pm 10.1 9.6 9.3 95 0.4 SW 2 6 1 3 1022.4 1022.4 0.0
30/09:30pm 11.7 10.0 11.1 96 0.3 WSW 11 13 6 7 1022.9 1022.8 0.0
30/09:00pm 10.8 9.1 10.0 95 0.4 WSW 9 11 5 6 1023.0 1022.9 0.0
30/08:30pm 10.9 9.8 9.8 93 0.6 SW 6 11 3 6 1023.2 1023.1 0.0
30/08:00pm 11.2 9.2 10.3 94 0.5 WSW 11 13 6 7 1023.3 1023.2 0.0
30/07:30pm 11.6 10.0 10.3 92 0.7 SW 9 13 5 7 1023.2 1023.1 0.0
30/07:00pm 11.7 9.7 10.3 91 0.7 WSW 11 15 6 8 1023.1 1023.0 0.0
30/06:30pm 12.4 10.9 10.5 88 1.0 SW 9 11 5 6 1022.9 1022.8 0.0
30/06:00pm 13.3 12.2 10.8 85 1.3 WSW 7 9 4 5 1022.9 1022.8 0.0
30/05:30pm 14.7 15.2 11.5 81 1.7 CALM 0 0 0 0 1022.8 1022.7 0.0
30/05:00pm 16.2 15.4 11.6 74 2.5 E 7 9 4 5 1022.7 1022.6 0.0
30/04:30pm 17.4 15.8 11.7 69 3.1 ENE 11 15 6 8 1022.7 1022.6 0.0
30/04:00pm 18.3 16.2 11.1 63 3.9 ENE 13 17 7 9 1022.9 1022.8 0.0
30/03:30pm 19.1 16.6 10.9 59 4.5 ENE 15 20 8 11 1023.0 1022.9 0.0
30/03:00pm 19.2 17.1 11.0 59 4.5 E 13 17 7 9 1023.4 1023.3 0.0
30/02:30pm 19.8 17.7 11.0 57 4.8 ENE 13 19 7 10 1023.9 1023.8 0.0
30/02:00pm 20.1 19.0 12.1 60 4.5 NE 9 19 5 10 1024.0 1023.9 0.0
30/01:30pm 19.3 17.0 10.6 57 4.7 NNE 13 19 7 10 1024.2 1024.1 0.0
30/01:00pm 19.6 18.4 11.6 60 4.4 NNE 9 13 5 7 1024.7 1024.6 0.0
30/12:30pm 19.0 19.1 12.7 67 3.5 NNW 4 11 2 6 1025.2 1025.1 0.0
30/12:00pm 18.4 18.1 12.6 69 3.2 NNE 6 9 3 5 1025.7 1025.7 0.0
30/11:30am 17.8 17.7 14.9 83 1.7 NNE 9 11 5 6 1026.2 1026.2 0.0
30/11:00am 14.9 14.9 13.6 92 0.7 NE 6 9 3 5 1026.5 1026.5 0.0
30/10:30am 13.2 13.0 12.9 98 0.2 NNE 6 7 3 4 1027.0 1027.0 0.0
30/10:00am 12.0 12.2 11.8 99 0.1 NE 2 7 1 4 1027.4 1027.4 0.0
30/09:30am 10.9 11.1 10.7 99 0.1 CALM 0 6 0 3 1027.6 1027.6 0.0
30/09:00am 10.0 8.8 9.7 98 0.1 N 6 9 3 5 1027.7 1027.7 5.8
30/08:30am 9.1 7.5 8.8 98 0.1 NNE 7 9 4 5 1027.6 1027.6 5.8
30/08:00am 8.5 7.3 8.2 98 0.1 NE 4 6 2 3 1027.5 1027.5 5.8
30/07:30am 7.5 6.9 7.2 98 0.1 CALM 0 0 0 0 1027.5 1027.5 5.8
30/07:00am 7.2 6.5 6.8 97 0.2 CALM 0 0 0 0 1027.4 1027.4 5.8
30/06:30am 7.4 6.7 7.0 97 0.2 CALM 0 0 0 0 1027.2 1027.2 5.8
30/06:00am 7.9 7.3 7.5 97 0.2 CALM 0 0 0 0 1027.0 1027.0 5.8
30/05:30am 8.1 6.8 7.7 97 0.2 NE 4 6 2 3 1026.8 1026.8 5.8
30/05:00am 8.1 7.6 7.7 97 0.2 CALM 0 0 0 0 1026.5 1026.5 5.8
30/04:30am 8.7 8.3 8.3 97 0.2 CALM 0 0 0 0 1026.4 1026.4 5.8
30/04:00am 9.3 9.0 8.8 97 0.2 CALM 0 0 0 0 1026.2 1026.2 5.6
30/03:30am 9.7 9.6 9.4 98 0.1 CALM 0 0 0 0 1026.2 1026.2 5.6
30/03:00am 10.0 10.0 9.7 98 0.1 CALM 0 0 0 0 1026.1 1026.1 5.6
30/02:30am 10.4 10.5 10.1 98 0.2 CALM 0 0 0 0 1026.3 1026.3 5.6
30/02:00am 9.8 9.3 9.3 97 0.2 W 2 7 1 4 1026.6 1026.6 5.6
30/01:30am 9.8 9.3 9.3 97 0.2 SSW 2 6 1 3 1026.6 1026.6 5.6
30/01:00am 9.3 9.0 8.7 96 0.3 CALM 0 0 0 0 1026.7 1026.7 5.6
30/12:30am 10.1 8.9 9.6 97 0.3 NNE 6 7 3 4 1026.7 1026.7 5.6
30/12:00am 10.7 10.8 10.2 97 0.3 CALM 0 0 0 0 1026.8 1026.8 5.6
 
Date/Time
EST
Temp
°C
App
Temp
°C
Dew
Point
°C
Rel
Hum
%
Delta-T
°C
Wind Press
QNH
hPa
Press
MSL
hPa
Rain since
9am
mm
Dir  Spd
km/h
Gust
km/h
Spd
kts
Gust
kts
29/11:30pm 11.8 11.8 11.3 97 0.3 SE 2 6 1 3 1026.9 1026.9 5.6
29/11:00pm 12.5 12.0 12.0 97 0.3 WNW 6 7 3 4 1027.3 1027.3 5.6
29/10:30pm 12.4 11.7 12.1 98 0.2 SW 7 9 4 5 1027.4 1027.4 5.4
29/10:00pm 11.5 11.8 11.0 97 0.3 CALM 0 0 0 0 1027.5 1027.5 5.4
29/09:30pm 10.8 10.9 10.3 97 0.3 CALM 0 0 0 0 1027.6 1027.6 5.4
29/09:00pm 10.8 9.8 10.3 97 0.3 SW 6 7 3 4 1027.4 1027.4 5.4
29/08:30pm 10.0 8.8 9.4 96 0.3 WSW 6 7 3 4 1027.3 1027.3 5.4
29/08:00pm 10.6 10.7 10.0 96 0.3 CALM 0 0 0 0 1027.1 1027.1 5.4
29/07:30pm 10.8 10.5 10.0 95 0.4 SW 2 7 1 4 1027.0 1027.0 5.4

Other formats

Comma delimited format used in spreadsheet applications
http://www.bom.gov.au/fwo/IDN60801/IDN60801.95771.axf

JavaScript Object Notation format (JSON) in row-major order
http://www.bom.gov.au/fwo/IDN60801/IDN60801.95771.json

Data quality

Most of these data are generated automatically and are frequently updated. Quality checks on data are not normally performed. It is possible for incorrect values to appear. Refer to information at About Latest Weather Observations and please check the disclaimer before using these data.